sensor_id;sensor_type;location;lat;lon;timestamp;temperature;humidity
728;DHT22;347;48.780;9.158;2023-12-04T00:01:08;0.80;21.80
728;DHT22;347;48.780;9.158;2023-12-04T00:03:34;1.10;21.70
728;DHT22;347;48.780;9.158;2023-12-04T00:05:59;1.40;20.60
728;DHT22;347;48.780;9.158;2023-12-04T00:08:25;1.10;20.60
728;DHT22;347;48.780;9.158;2023-12-04T00:10:50;0.90;20.90
728;DHT22;347;48.780;9.158;2023-12-04T00:13:17;0.70;21.60
728;DHT22;347;48.780;9.158;2023-12-04T00:15:43;0.90;21.80
728;DHT22;347;48.780;9.158;2023-12-04T00:18:09;0.90;21.20
728;DHT22;347;48.780;9.158;2023-12-04T00:20:35;1.00;21.30
728;DHT22;347;48.780;9.158;2023-12-04T00:23:01;1.00;21.20
728;DHT22;347;48.780;9.158;2023-12-04T00:25:26;1.10;20.60
728;DHT22;347;48.780;9.158;2023-12-04T00:27:52;1.20;20.80
728;DHT22;347;48.780;9.158;2023-12-04T00:30:17;1.20;19.80
728;DHT22;347;48.780;9.158;2023-12-04T00:32:43;1.20;20.20
728;DHT22;347;48.780;9.158;2023-12-04T00:35:08;1.20;20.50
728;DHT22;347;48.780;9.158;2023-12-04T00:37:34;1.10;20.60
728;DHT22;347;48.780;9.158;2023-12-04T00:40:04;1.30;20.60
728;DHT22;347;48.780;9.158;2023-12-04T00:42:30;1.20;19.90
728;DHT22;347;48.780;9.158;2023-12-04T00:44:58;1.40;20.40
728;DHT22;347;48.780;9.158;2023-12-04T00:47:23;1.50;19.80
728;DHT22;347;48.780;9.158;2023-12-04T00:49:49;1.70;19.60
728;DHT22;347;48.780;9.158;2023-12-04T00:52:15;1.60;19.20
728;DHT22;347;48.780;9.158;2023-12-04T00:54:40;1.50;19.50
728;DHT22;347;48.780;9.158;2023-12-04T00:57:06;1.40;19.40
728;DHT22;347;48.780;9.158;2023-12-04T00:59:32;1.10;19.90
728;DHT22;347;48.780;9.158;2023-12-04T01:01:57;0.80;20.40
728;DHT22;347;48.780;9.158;2023-12-04T01:04:23;0.70;21.00
728;DHT22;347;48.780;9.158;2023-12-04T01:06:48;0.80;21.20
728;DHT22;347;48.780;9.158;2023-12-04T01:09:14;1.00;21.40
728;DHT22;347;48.780;9.158;2023-12-04T01:11:39;1.10;21.00
728;DHT22;347;48.780;9.158;2023-12-04T01:14:05;1.20;21.20
728;DHT22;347;48.780;9.158;2023-12-04T01:16:30;1.00;21.20
728;DHT22;347;48.780;9.158;2023-12-04T01:18:56;0.90;21.20
728;DHT22;347;48.780;9.158;2023-12-04T01:21:22;0.90;20.80
728;DHT22;347;48.780;9.158;2023-12-04T01:23:47;1.00;20.50
728;DHT22;347;48.780;9.158;2023-12-04T01:26:13;1.00;20.70
728;DHT22;347;48.780;9.158;2023-12-04T01:28:38;0.90;21.10
728;DHT22;347;48.780;9.158;2023-12-04T01:31:04;0.90;21.20
728;DHT22;347;48.780;9.158;2023-12-04T01:33:30;1.00;21.20
728;DHT22;347;48.780;9.158;2023-12-04T01:35:55;1.00;20.10
728;DHT22;347;48.780;9.158;2023-12-04T01:38:21;1.00;20.40
728;DHT22;347;48.780;9.158;2023-12-04T01:40:47;0.60;20.50
728;DHT22;347;48.780;9.158;2023-12-04T01:43:12;0.70;20.90
728;DHT22;347;48.780;9.158;2023-12-04T01:45:38;0.90;21.00
728;DHT22;347;48.780;9.158;2023-12-04T01:48:04;0.90;19.80
728;DHT22;347;48.780;9.158;2023-12-04T01:50:31;0.80;20.30
728;DHT22;347;48.780;9.158;2023-12-04T01:52:58;0.70;20.40
728;DHT22;347;48.780;9.158;2023-12-04T01:55:23;0.60;20.60
728;DHT22;347;48.780;9.158;2023-12-04T01:57:49;0.50;21.10
728;DHT22;347;48.780;9.158;2023-12-04T02:00:15;0.40;21.00
728;DHT22;347;48.780;9.158;2023-12-04T02:02:41;0.70;21.00
728;DHT22;347;48.780;9.158;2023-12-04T02:05:11;0.90;20.80
728;DHT22;347;48.780;9.158;2023-12-04T02:07:37;0.90;20.10
728;DHT22;347;48.780;9.158;2023-12-04T02:10:03;0.90;20.00
728;DHT22;347;48.780;9.158;2023-12-04T02:12:30;0.90;20.10
728;DHT22;347;48.780;9.158;2023-12-04T02:14:56;0.40;20.80
728;DHT22;347;48.780;9.158;2023-12-04T02:17:22;0.40;21.00
728;DHT22;347;48.780;9.158;2023-12-04T02:19:48;0.40;21.10
728;DHT22;347;48.780;9.158;2023-12-04T02:22:13;0.30;21.50
728;DHT22;347;48.780;9.158;2023-12-04T02:24:39;0.50;21.00
728;DHT22;347;48.780;9.158;2023-12-04T02:27:15;0.50;20.70
728;DHT22;347;48.780;9.158;2023-12-04T02:29:46;0.30;21.70
728;DHT22;347;48.780;9.158;2023-12-04T02:32:15;0.40;21.10
728;DHT22;347;48.780;9.158;2023-12-04T02:34:43;0.40;21.50
728;DHT22;347;48.780;9.158;2023-12-04T02:37:10;0.20;21.80
728;DHT22;347;48.780;9.158;2023-12-04T02:39:36;0.10;22.10
728;DHT22;347;48.780;9.158;2023-12-04T02:42:03;0.10;22.20
728;DHT22;347;48.780;9.158;2023-12-04T02:44:28;0.10;22.30
728;DHT22;347;48.780;9.158;2023-12-04T02:46:54;0.20;22.20
728;DHT22;347;48.780;9.158;2023-12-04T02:49:19;0.10;22.20
728;DHT22;347;48.780;9.158;2023-12-04T02:51:45;0.00;22.30
728;DHT22;347;48.780;9.158;2023-12-04T02:54:10;0.00;22.60
728;DHT22;347;48.780;9.158;2023-12-04T02:56:36;0.20;22.50
728;DHT22;347;48.780;9.158;2023-12-04T02:59:01;0.30;21.90
728;DHT22;347;48.780;9.158;2023-12-04T03:01:27;0.40;21.70
728;DHT22;347;48.780;9.158;2023-12-04T03:03:52;0.50;20.90
728;DHT22;347;48.780;9.158;2023-12-04T03:06:18;0.50;21.10
728;DHT22;347;48.780;9.158;2023-12-04T03:08:43;0.50;21.30
728;DHT22;347;48.780;9.158;2023-12-04T03:14:31;0.60;21.00
728;DHT22;347;48.780;9.158;2023-12-04T03:16:57;0.50;20.60
728;DHT22;347;48.780;9.158;2023-12-04T03:19:22;0.30;21.30
728;DHT22;347;48.780;9.158;2023-12-04T03:21:48;0.10;21.40
728;DHT22;347;48.780;9.158;2023-12-04T03:24:13;0.10;21.90
728;DHT22;347;48.780;9.158;2023-12-04T03:26:40;0.10;21.80
728;DHT22;347;48.780;9.158;2023-12-04T03:29:05;0.30;21.40
728;DHT22;347;48.780;9.158;2023-12-04T03:31:31;0.50;21.20
728;DHT22;347;48.780;9.158;2023-12-04T03:33:57;0.30;20.90
728;DHT22;347;48.780;9.158;2023-12-04T03:36:22;0.50;21.30
728;DHT22;347;48.780;9.158;2023-12-04T03:38:48;0.60;20.70
728;DHT22;347;48.780;9.158;2023-12-04T03:41:17;0.70;20.40
728;DHT22;347;48.780;9.158;2023-12-04T03:43:42;0.60;20.50
728;DHT22;347;48.780;9.158;2023-12-04T03:46:11;0.50;21.40
728;DHT22;347;48.780;9.158;2023-12-04T03:48:36;0.80;20.30
728;DHT22;347;48.780;9.158;2023-12-04T03:51:02;1.10;20.40
728;DHT22;347;48.780;9.158;2023-12-04T03:53:28;1.30;20.00
728;DHT22;347;48.780;9.158;2023-12-04T03:55:59;1.40;19.20
728;DHT22;347;48.780;9.158;2023-12-04T03:58:25;1.40;19.20
728;DHT22;347;48.780;9.158;2023-12-04T04:00:50;1.30;19.00
728;DHT22;347;48.780;9.158;2023-12-04T04:03:16;1.20;19.10
728;DHT22;347;48.780;9.158;2023-12-04T04:05:41;1.20;19.10
728;DHT22;347;48.780;9.158;2023-12-04T04:08:07;1.20;18.60
728;DHT22;347;48.780;9.158;2023-12-04T04:10:34;1.20;19.00
728;DHT22;347;48.780;9.158;2023-12-04T04:12:59;1.20;19.20
728;DHT22;347;48.780;9.158;2023-12-04T04:15:25;0.90;19.20
728;DHT22;347;48.780;9.158;2023-12-04T04:17:51;0.70;19.90
728;DHT22;347;48.780;9.158;2023-12-04T04:20:17;0.80;19.80
728;DHT22;347;48.780;9.158;2023-12-04T04:22:43;0.50;20.20
728;DHT22;347;48.780;9.158;2023-12-04T04:25:09;0.40;20.70
728;DHT22;347;48.780;9.158;2023-12-04T04:27:35;0.30;21.30
728;DHT22;347;48.780;9.158;2023-12-04T04:30:01;0.10;21.10
728;DHT22;347;48.780;9.158;2023-12-04T04:32:26;0.10;21.30
728;DHT22;347;48.780;9.158;2023-12-04T04:34:52;0.00;21.80
728;DHT22;347;48.780;9.158;2023-12-04T04:37:18;0.10;22.10
728;DHT22;347;48.780;9.158;2023-12-04T04:39:44;0.40;21.70
728;DHT22;347;48.780;9.158;2023-12-04T04:42:09;0.80;21.20
728;DHT22;347;48.780;9.158;2023-12-04T04:44:35;0.80;20.10
728;DHT22;347;48.780;9.158;2023-12-04T04:47:00;0.60;20.10
728;DHT22;347;48.780;9.158;2023-12-04T04:49:26;0.60;20.60
728;DHT22;347;48.780;9.158;2023-12-04T04:51:51;0.40;20.40
728;DHT22;347;48.780;9.158;2023-12-04T04:54:17;0.30;21.00
728;DHT22;347;48.780;9.158;2023-12-04T04:56:43;0.30;20.70
728;DHT22;347;48.780;9.158;2023-12-04T04:59:08;0.60;20.90
728;DHT22;347;48.780;9.158;2023-12-04T05:01:34;0.50;20.80
728;DHT22;347;48.780;9.158;2023-12-04T05:03:59;0.70;20.40
728;DHT22;347;48.780;9.158;2023-12-04T05:06:25;1.00;21.10
728;DHT22;347;48.780;9.158;2023-12-04T05:08:52;1.30;19.50
728;DHT22;347;48.780;9.158;2023-12-04T05:11:18;1.40;19.20
728;DHT22;347;48.780;9.158;2023-12-04T05:13:45;1.50;18.80
728;DHT22;347;48.780;9.158;2023-12-04T05:16:11;1.60;19.00
728;DHT22;347;48.780;9.158;2023-12-04T05:18:38;1.70;18.70
728;DHT22;347;48.780;9.158;2023-12-04T05:21:03;1.70;18.80
728;DHT22;347;48.780;9.158;2023-12-04T05:23:37;1.90;18.80
728;DHT22;347;48.780;9.158;2023-12-04T05:26:07;2.00;18.70
728;DHT22;347;48.780;9.158;2023-12-04T05:28:34;2.10;18.50
728;DHT22;347;48.780;9.158;2023-12-04T05:30:59;2.20;17.50
728;DHT22;347;48.780;9.158;2023-12-04T05:33:25;2.20;17.30
728;DHT22;347;48.780;9.158;2023-12-04T05:35:51;2.10;17.20
728;DHT22;347;48.780;9.158;2023-12-04T05:38:17;2.00;18.10
728;DHT22;347;48.780;9.158;2023-12-04T05:40:43;2.10;17.50
728;DHT22;347;48.780;9.158;2023-12-04T05:43:09;2.10;17.90
728;DHT22;347;48.780;9.158;2023-12-04T05:45:34;2.10;18.50
728;DHT22;347;48.780;9.158;2023-12-04T05:48:00;2.00;17.80
728;DHT22;347;48.780;9.158;2023-12-04T05:50:25;2.00;18.30
728;DHT22;347;48.780;9.158;2023-12-04T05:52:51;2.20;17.70
728;DHT22;347;48.780;9.158;2023-12-04T05:55:17;2.20;17.30
728;DHT22;347;48.780;9.158;2023-12-04T05:57:44;2.30;17.10
728;DHT22;347;48.780;9.158;2023-12-04T06:00:10;2.30;16.70
728;DHT22;347;48.780;9.158;2023-12-04T06:02:43;2.30;16.10
728;DHT22;347;48.780;9.158;2023-12-04T06:05:09;2.20;16.90
728;DHT22;347;48.780;9.158;2023-12-04T06:07:36;2.10;16.90
728;DHT22;347;48.780;9.158;2023-12-04T06:10:03;2.20;16.90
728;DHT22;347;48.780;9.158;2023-12-04T06:12:32;2.30;16.60
728;DHT22;347;48.780;9.158;2023-12-04T06:14:57;2.30;16.10
728;DHT22;347;48.780;9.158;2023-12-04T06:17:26;2.10;16.80
728;DHT22;347;48.780;9.158;2023-12-04T06:19:53;1.60;17.90
728;DHT22;347;48.780;9.158;2023-12-04T06:22:18;1.50;18.60
728;DHT22;347;48.780;9.158;2023-12-04T06:24:47;1.30;18.60
728;DHT22;347;48.780;9.158;2023-12-04T06:27:15;1.10;18.30
728;DHT22;347;48.780;9.158;2023-12-04T06:29:43;0.90;19.20
728;DHT22;347;48.780;9.158;2023-12-04T06:32:09;0.90;20.10
728;DHT22;347;48.780;9.158;2023-12-04T06:34:35;1.00;19.30
728;DHT22;347;48.780;9.158;2023-12-04T06:37:02;1.00;19.50
728;DHT22;347;48.780;9.158;2023-12-04T06:39:32;1.30;19.10
728;DHT22;347;48.780;9.158;2023-12-04T06:41:59;1.50;18.80
728;DHT22;347;48.780;9.158;2023-12-04T06:44:25;1.60;18.50
728;DHT22;347;48.780;9.158;2023-12-04T06:46:52;1.70;18.70
728;DHT22;347;48.780;9.158;2023-12-04T06:49:20;1.80;18.50
728;DHT22;347;48.780;9.158;2023-12-04T06:51:46;1.80;18.00
728;DHT22;347;48.780;9.158;2023-12-04T06:54:12;2.00;18.30
728;DHT22;347;48.780;9.158;2023-12-04T06:56:39;1.70;18.00
728;DHT22;347;48.780;9.158;2023-12-04T06:59:05;1.10;18.90
728;DHT22;347;48.780;9.158;2023-12-04T07:01:42;0.50;20.10
728;DHT22;347;48.780;9.158;2023-12-04T07:04:09;0.50;21.00
728;DHT22;347;48.780;9.158;2023-12-04T07:06:43;0.60;21.00
728;DHT22;347;48.780;9.158;2023-12-04T07:09:12;0.70;20.50
728;DHT22;347;48.780;9.158;2023-12-04T07:11:38;0.70;20.00
728;DHT22;347;48.780;9.158;2023-12-04T07:14:03;0.60;20.20
728;DHT22;347;48.780;9.158;2023-12-04T07:16:29;0.70;20.40
728;DHT22;347;48.780;9.158;2023-12-04T07:18:55;0.80;20.30
728;DHT22;347;48.780;9.158;2023-12-04T07:21:34;0.80;20.00
728;DHT22;347;48.780;9.158;2023-12-04T07:24:00;0.90;20.60
728;DHT22;347;48.780;9.158;2023-12-04T07:26:25;1.10;20.80
728;DHT22;347;48.780;9.158;2023-12-04T07:28:51;1.50;20.10
728;DHT22;347;48.780;9.158;2023-12-04T07:31:20;1.70;19.00
728;DHT22;347;48.780;9.158;2023-12-04T07:33:46;2.00;18.90
728;DHT22;347;48.780;9.158;2023-12-04T07:36:14;2.10;18.70
728;DHT22;347;48.780;9.158;2023-12-04T07:38:40;2.00;18.90
728;DHT22;347;48.780;9.158;2023-12-04T07:41:05;2.00;18.90
728;DHT22;347;48.780;9.158;2023-12-04T07:43:34;2.10;19.00
728;DHT22;347;48.780;9.158;2023-12-04T07:46:00;2.10;18.10
728;DHT22;347;48.780;9.158;2023-12-04T07:48:27;2.20;18.30
728;DHT22;347;48.780;9.158;2023-12-04T07:50:56;2.20;18.20
728;DHT22;347;48.780;9.158;2023-12-04T07:53:23;2.10;17.80
728;DHT22;347;48.780;9.158;2023-12-04T07:55:49;1.60;18.30
728;DHT22;347;48.780;9.158;2023-12-04T07:58:17;1.30;18.50
728;DHT22;347;48.780;9.158;2023-12-04T08:00:43;1.00;19.60
728;DHT22;347;48.780;9.158;2023-12-04T08:03:09;0.90;20.30
728;DHT22;347;48.780;9.158;2023-12-04T08:05:35;1.00;19.60
728;DHT22;347;48.780;9.158;2023-12-04T08:08:00;1.10;20.00
728;DHT22;347;48.780;9.158;2023-12-04T08:10:26;0.80;20.20
728;DHT22;347;48.780;9.158;2023-12-04T08:12:52;0.80;20.60
728;DHT22;347;48.780;9.158;2023-12-04T08:15:17;0.60;21.50
728;DHT22;347;48.780;9.158;2023-12-04T08:17:43;0.70;21.50
728;DHT22;347;48.780;9.158;2023-12-04T08:20:09;0.90;21.70
728;DHT22;347;48.780;9.158;2023-12-04T08:22:39;1.10;20.90
728;DHT22;347;48.780;9.158;2023-12-04T08:25:05;1.20;21.20
728;DHT22;347;48.780;9.158;2023-12-04T08:27:32;1.30;20.70
728;DHT22;347;48.780;9.158;2023-12-04T08:29:58;1.40;20.70
728;DHT22;347;48.780;9.158;2023-12-04T08:32:23;1.50;20.40
728;DHT22;347;48.780;9.158;2023-12-04T08:34:51;1.60;20.30
728;DHT22;347;48.780;9.158;2023-12-04T08:37:18;1.70;19.40
728;DHT22;347;48.780;9.158;2023-12-04T08:39:44;1.60;19.50
728;DHT22;347;48.780;9.158;2023-12-04T08:42:10;1.50;19.30
728;DHT22;347;48.780;9.158;2023-12-04T08:44:36;1.30;19.80
728;DHT22;347;48.780;9.158;2023-12-04T08:47:02;1.20;20.70
728;DHT22;347;48.780;9.158;2023-12-04T08:49:28;0.80;20.80
728;DHT22;347;48.780;9.158;2023-12-04T08:51:53;0.80;20.80
728;DHT22;347;48.780;9.158;2023-12-04T08:54:19;0.70;20.50
728;DHT22;347;48.780;9.158;2023-12-04T08:56:44;0.70;20.70
728;DHT22;347;48.780;9.158;2023-12-04T08:59:10;0.50;21.40
728;DHT22;347;48.780;9.158;2023-12-04T09:01:36;0.30;21.90
728;DHT22;347;48.780;9.158;2023-12-04T09:04:01;0.20;22.70
728;DHT22;347;48.780;9.158;2023-12-04T09:06:27;0.40;23.80
728;DHT22;347;48.780;9.158;2023-12-04T09:08:52;0.60;22.80
728;DHT22;347;48.780;9.158;2023-12-04T09:11:19;0.70;23.20
728;DHT22;347;48.780;9.158;2023-12-04T09:13:45;0.90;24.00
728;DHT22;347;48.780;9.158;2023-12-04T09:16:10;1.00;22.00
728;DHT22;347;48.780;9.158;2023-12-04T09:18:36;1.00;21.70
728;DHT22;347;48.780;9.158;2023-12-04T09:21:02;1.10;22.00
728;DHT22;347;48.780;9.158;2023-12-04T09:23:27;1.30;21.10
728;DHT22;347;48.780;9.158;2023-12-04T09:25:53;1.30;20.90
728;DHT22;347;48.780;9.158;2023-12-04T09:28:19;1.30;20.90
728;DHT22;347;48.780;9.158;2023-12-04T09:30:44;1.20;21.20
728;DHT22;347;48.780;9.158;2023-12-04T09:33:10;1.30;21.50
728;DHT22;347;48.780;9.158;2023-12-04T09:35:36;1.40;21.30
728;DHT22;347;48.780;9.158;2023-12-04T09:38:01;1.60;21.30
728;DHT22;347;48.780;9.158;2023-12-04T09:40:27;1.70;21.10
728;DHT22;347;48.780;9.158;2023-12-04T09:42:53;1.80;20.80
728;DHT22;347;48.780;9.158;2023-12-04T09:45:20;1.40;20.90
728;DHT22;347;48.780;9.158;2023-12-04T09:47:47;1.50;21.70
728;DHT22;347;48.780;9.158;2023-12-04T09:50:15;1.80;21.60
728;DHT22;347;48.780;9.158;2023-12-04T09:52:42;2.10;21.20
728;DHT22;347;48.780;9.158;2023-12-04T09:55:08;2.40;21.30
728;DHT22;347;48.780;9.158;2023-12-04T09:57:34;2.50;20.80
728;DHT22;347;48.780;9.158;2023-12-04T10:00:02;2.60;20.70
728;DHT22;347;48.780;9.158;2023-12-04T10:02:29;2.60;20.50
728;DHT22;347;48.780;9.158;2023-12-04T10:04:54;2.40;20.10
728;DHT22;347;48.780;9.158;2023-12-04T10:07:20;2.00;21.60
728;DHT22;347;48.780;9.158;2023-12-04T10:09:46;2.00;22.10
728;DHT22;347;48.780;9.158;2023-12-04T10:12:12;2.20;21.20
728;DHT22;347;48.780;9.158;2023-12-04T10:14:37;2.30;21.30
728;DHT22;347;48.780;9.158;2023-12-04T10:17:16;2.40;21.50
728;DHT22;347;48.780;9.158;2023-12-04T10:19:43;2.60;21.80
728;DHT22;347;48.780;9.158;2023-12-04T10:22:08;2.70;21.10
728;DHT22;347;48.780;9.158;2023-12-04T10:24:39;2.40;21.10
728;DHT22;347;48.780;9.158;2023-12-04T10:27:06;2.30;22.00
728;DHT22;347;48.780;9.158;2023-12-04T10:29:44;2.20;22.40
728;DHT22;347;48.780;9.158;2023-12-04T10:32:11;2.30;21.70
728;DHT22;347;48.780;9.158;2023-12-04T10:34:37;2.40;21.90
728;DHT22;347;48.780;9.158;2023-12-04T10:37:04;2.50;21.70
728;DHT22;347;48.780;9.158;2023-12-04T10:39:30;2.60;21.50
728;DHT22;347;48.780;9.158;2023-12-04T10:42:01;2.80;21.50
728;DHT22;347;48.780;9.158;2023-12-04T10:44:27;2.90;22.00
728;DHT22;347;48.780;9.158;2023-12-04T10:46:55;3.10;21.00
728;DHT22;347;48.780;9.158;2023-12-04T10:49:26;3.30;20.90
728;DHT22;347;48.780;9.158;2023-12-04T10:51:55;3.30;20.20
728;DHT22;347;48.780;9.158;2023-12-04T10:54:21;3.40;20.50
728;DHT22;347;48.780;9.158;2023-12-04T10:56:49;3.40;20.80
728;DHT22;347;48.780;9.158;2023-12-04T10:59:27;3.50;20.70
728;DHT22;347;48.780;9.158;2023-12-04T11:01:53;3.60;20.30
728;DHT22;347;48.780;9.158;2023-12-04T11:04:25;3.70;20.00
728;DHT22;347;48.780;9.158;2023-12-04T11:06:53;3.70;20.00
728;DHT22;347;48.780;9.158;2023-12-04T11:09:21;3.80;20.00
728;DHT22;347;48.780;9.158;2023-12-04T11:11:51;3.90;20.10
728;DHT22;347;48.780;9.158;2023-12-04T11:14:21;3.90;20.10
728;DHT22;347;48.780;9.158;2023-12-04T11:16:51;3.90;20.60
728;DHT22;347;48.780;9.158;2023-12-04T11:19:32;3.60;19.90
728;DHT22;347;48.780;9.158;2023-12-04T11:22:02;3.20;20.90
728;DHT22;347;48.780;9.158;2023-12-04T11:24:28;2.90;22.10
728;DHT22;347;48.780;9.158;2023-12-04T11:26:54;2.50;23.20
728;DHT22;347;48.780;9.158;2023-12-04T11:29:21;2.40;23.90
728;DHT22;347;48.780;9.158;2023-12-04T11:31:47;2.50;23.80
728;DHT22;347;48.780;9.158;2023-12-04T11:34:13;2.50;24.70
728;DHT22;347;48.780;9.158;2023-12-04T11:36:39;2.70;23.90
728;DHT22;347;48.780;9.158;2023-12-04T11:39:09;2.90;24.30
728;DHT22;347;48.780;9.158;2023-12-04T11:41:36;3.10;22.90
728;DHT22;347;48.780;9.158;2023-12-04T11:44:02;3.10;23.30
728;DHT22;347;48.780;9.158;2023-12-04T11:46:29;3.20;23.10
728;DHT22;347;48.780;9.158;2023-12-04T11:51:51;3.40;22.90
728;DHT22;347;48.780;9.158;2023-12-04T11:54:19;3.50;23.50
728;DHT22;347;48.780;9.158;2023-12-04T11:57:20;3.80;23.60
728;DHT22;347;48.780;9.158;2023-12-04T11:59:47;4.10;22.90
728;DHT22;347;48.780;9.158;2023-12-04T12:02:13;4.30;22.70
728;DHT22;347;48.780;9.158;2023-12-04T12:04:40;4.30;22.30
728;DHT22;347;48.780;9.158;2023-12-04T12:07:06;4.30;22.30
728;DHT22;347;48.780;9.158;2023-12-04T12:09:35;4.30;21.70
728;DHT22;347;48.780;9.158;2023-12-04T12:12:02;4.40;21.80
728;DHT22;347;48.780;9.158;2023-12-04T12:14:31;4.20;22.10
728;DHT22;347;48.780;9.158;2023-12-04T12:17:00;4.10;22.30
728;DHT22;347;48.780;9.158;2023-12-04T12:19:26;4.20;22.60
728;DHT22;347;48.780;9.158;2023-12-04T12:21:52;4.30;22.40
728;DHT22;347;48.780;9.158;2023-12-04T12:24:19;4.30;21.20
728;DHT22;347;48.780;9.158;2023-12-04T12:26:44;4.30;21.30
728;DHT22;347;48.780;9.158;2023-12-04T12:29:11;4.40;21.30
728;DHT22;347;48.780;9.158;2023-12-04T12:31:37;4.60;21.10
728;DHT22;347;48.780;9.158;2023-12-04T12:34:03;4.60;20.60
728;DHT22;347;48.780;9.158;2023-12-04T12:36:29;4.70;20.60
728;DHT22;347;48.780;9.158;2023-12-04T12:38:56;4.70;20.60
728;DHT22;347;48.780;9.158;2023-12-04T12:41:21;4.60;20.50
728;DHT22;347;48.780;9.158;2023-12-04T12:43:51;4.50;20.50
728;DHT22;347;48.780;9.158;2023-12-04T12:46:17;4.40;20.40
728;DHT22;347;48.780;9.158;2023-12-04T12:48:43;4.40;20.40
728;DHT22;347;48.780;9.158;2023-12-04T12:51:09;4.60;20.50
728;DHT22;347;48.780;9.158;2023-12-04T12:53:36;4.70;20.30
728;DHT22;347;48.780;9.158;2023-12-04T12:56:03;4.70;19.80
728;DHT22;347;48.780;9.158;2023-12-04T12:58:28;4.50;20.00
728;DHT22;347;48.780;9.158;2023-12-04T13:00:55;4.40;20.40
728;DHT22;347;48.780;9.158;2023-12-04T13:03:20;4.40;20.40
728;DHT22;347;48.780;9.158;2023-12-04T13:05:46;4.20;21.70
728;DHT22;347;48.780;9.158;2023-12-04T13:08:12;4.20;21.80
728;DHT22;347;48.780;9.158;2023-12-04T13:10:40;4.20;21.70
728;DHT22;347;48.780;9.158;2023-12-04T13:13:15;4.30;21.30
728;DHT22;347;48.780;9.158;2023-12-04T13:15:41;4.30;21.60
728;DHT22;347;48.780;9.158;2023-12-04T13:18:08;4.20;21.50
728;DHT22;347;48.780;9.158;2023-12-04T13:20:34;4.30;22.00
728;DHT22;347;48.780;9.158;2023-12-04T13:23:00;4.40;22.40
728;DHT22;347;48.780;9.158;2023-12-04T13:25:26;4.50;22.10
728;DHT22;347;48.780;9.158;2023-12-04T13:27:53;4.50;22.80
728;DHT22;347;48.780;9.158;2023-12-04T13:30:19;4.20;23.10
728;DHT22;347;48.780;9.158;2023-12-04T13:32:45;3.90;23.90
728;DHT22;347;48.780;9.158;2023-12-04T13:35:11;3.90;24.40
728;DHT22;347;48.780;9.158;2023-12-04T13:37:37;3.80;24.70
728;DHT22;347;48.780;9.158;2023-12-04T13:40:05;3.90;25.30
728;DHT22;347;48.780;9.158;2023-12-04T13:42:34;4.10;24.80
728;DHT22;347;48.780;9.158;2023-12-04T13:45:18;4.00;24.40
728;DHT22;347;48.780;9.158;2023-12-04T13:47:47;3.60;24.60
728;DHT22;347;48.780;9.158;2023-12-04T13:50:12;3.30;24.90
728;DHT22;347;48.780;9.158;2023-12-04T13:52:38;3.20;25.40
728;DHT22;347;48.780;9.158;2023-12-04T13:55:05;3.10;25.70
728;DHT22;347;48.780;9.158;2023-12-04T13:57:42;3.10;26.20
728;DHT22;347;48.780;9.158;2023-12-04T14:00:30;3.20;25.70
728;DHT22;347;48.780;9.158;2023-12-04T14:02:56;3.10;25.90
728;DHT22;347;48.780;9.158;2023-12-04T14:05:35;3.10;25.40
728;DHT22;347;48.780;9.158;2023-12-04T14:08:00;3.10;25.80
728;DHT22;347;48.780;9.158;2023-12-04T14:10:26;3.10;25.50
728;DHT22;347;48.780;9.158;2023-12-04T14:12:53;3.00;25.50
728;DHT22;347;48.780;9.158;2023-12-04T14:15:19;2.80;25.50
728;DHT22;347;48.780;9.158;2023-12-04T14:17:45;2.60;25.40
728;DHT22;347;48.780;9.158;2023-12-04T14:20:12;2.50;25.50
728;DHT22;347;48.780;9.158;2023-12-04T14:22:44;2.60;25.30
728;DHT22;347;48.780;9.158;2023-12-04T14:25:11;2.70;25.00
728;DHT22;347;48.780;9.158;2023-12-04T14:27:36;2.80;24.70
728;DHT22;347;48.780;9.158;2023-12-04T14:30:06;2.90;25.10
728;DHT22;347;48.780;9.158;2023-12-04T14:32:34;3.00;24.50
728;DHT22;347;48.780;9.158;2023-12-04T14:34:59;3.10;24.00
728;DHT22;347;48.780;9.158;2023-12-04T14:37:26;2.90;24.40
728;DHT22;347;48.780;9.158;2023-12-04T14:39:51;3.10;25.20
728;DHT22;347;48.780;9.158;2023-12-04T14:42:17;3.10;24.60
728;DHT22;347;48.780;9.158;2023-12-04T14:44:43;3.10;24.60
728;DHT22;347;48.780;9.158;2023-12-04T14:47:08;2.90;25.10
728;DHT22;347;48.780;9.158;2023-12-04T14:49:34;3.10;25.80
728;DHT22;347;48.780;9.158;2023-12-04T14:52:00;3.10;25.40
728;DHT22;347;48.780;9.158;2023-12-04T14:54:26;3.10;25.30
728;DHT22;347;48.780;9.158;2023-12-04T14:57:10;3.10;25.40
728;DHT22;347;48.780;9.158;2023-12-04T14:59:44;3.10;24.80
728;DHT22;347;48.780;9.158;2023-12-04T15:02:13;3.10;26.10
728;DHT22;347;48.780;9.158;2023-12-04T15:04:57;3.10;25.90
728;DHT22;347;48.780;9.158;2023-12-04T15:07:23;3.30;25.80
728;DHT22;347;48.780;9.158;2023-12-04T15:10:26;3.40;25.10
728;DHT22;347;48.780;9.158;2023-12-04T15:12:52;3.70;25.50
728;DHT22;347;48.780;9.158;2023-12-04T15:15:43;3.60;25.50
728;DHT22;347;48.780;9.158;2023-12-04T15:18:15;3.70;25.10
728;DHT22;347;48.780;9.158;2023-12-04T15:20:59;3.90;24.80
728;DHT22;347;48.780;9.158;2023-12-04T15:23:24;3.90;24.60
728;DHT22;347;48.780;9.158;2023-12-04T15:25:50;3.90;24.60
728;DHT22;347;48.780;9.158;2023-12-04T15:28:16;3.90;24.80
728;DHT22;347;48.780;9.158;2023-12-04T15:30:41;3.90;25.10
728;DHT22;347;48.780;9.158;2023-12-04T15:33:07;4.00;25.40
728;DHT22;347;48.780;9.158;2023-12-04T15:35:33;4.10;24.60
728;DHT22;347;48.780;9.158;2023-12-04T15:37:58;4.10;24.70
728;DHT22;347;48.780;9.158;2023-12-04T15:40:24;4.10;24.50
728;DHT22;347;48.780;9.158;2023-12-04T15:42:50;4.10;24.80
728;DHT22;347;48.780;9.158;2023-12-04T15:45:16;4.20;24.70
728;DHT22;347;48.780;9.158;2023-12-04T15:47:42;4.40;24.50
728;DHT22;347;48.780;9.158;2023-12-04T15:50:08;4.60;23.80
728;DHT22;347;48.780;9.158;2023-12-04T15:52:34;4.80;23.40
728;DHT22;347;48.780;9.158;2023-12-04T15:55:04;4.90;23.50
728;DHT22;347;48.780;9.158;2023-12-04T15:57:30;4.80;23.20
728;DHT22;347;48.780;9.158;2023-12-04T15:59:55;4.70;23.20
728;DHT22;347;48.780;9.158;2023-12-04T16:02:21;4.50;23.70
728;DHT22;347;48.780;9.158;2023-12-04T16:04:47;4.20;24.70
728;DHT22;347;48.780;9.158;2023-12-04T16:07:12;3.80;26.30
728;DHT22;347;48.780;9.158;2023-12-04T16:09:38;3.70;26.10
728;DHT22;347;48.780;9.158;2023-12-04T16:12:03;3.60;26.30
728;DHT22;347;48.780;9.158;2023-12-04T16:14:29;3.20;26.60
728;DHT22;347;48.780;9.158;2023-12-04T16:16:55;3.20;27.70
728;DHT22;347;48.780;9.158;2023-12-04T16:19:20;3.30;27.40
728;DHT22;347;48.780;9.158;2023-12-04T16:21:46;3.30;27.00
728;DHT22;347;48.780;9.158;2023-12-04T16:24:11;3.10;27.30
728;DHT22;347;48.780;9.158;2023-12-04T16:26:37;3.30;27.80
728;DHT22;347;48.780;9.158;2023-12-04T16:29:03;3.50;27.00
728;DHT22;347;48.780;9.158;2023-12-04T16:31:29;3.30;26.70
728;DHT22;347;48.780;9.158;2023-12-04T16:33:55;3.40;27.10
728;DHT22;347;48.780;9.158;2023-12-04T16:36:20;3.40;26.60
728;DHT22;347;48.780;9.158;2023-12-04T16:38:46;3.50;26.60
728;DHT22;347;48.780;9.158;2023-12-04T16:41:12;3.60;26.70
728;DHT22;347;48.780;9.158;2023-12-04T16:43:41;3.50;26.60
728;DHT22;347;48.780;9.158;2023-12-04T16:46:10;3.60;26.40
728;DHT22;347;48.780;9.158;2023-12-04T16:48:36;3.50;26.00
728;DHT22;347;48.780;9.158;2023-12-04T16:51:03;3.50;26.20
728;DHT22;347;48.780;9.158;2023-12-04T16:53:29;3.60;26.70
728;DHT22;347;48.780;9.158;2023-12-04T16:55:57;3.50;26.60